Time;durP1;ratioP1;P1;durP2;ratioP2;P2;SDS_P1;SDS_P2;PMS_P1;PMS_P2;Temp;Humidity;BMP_temperature;BMP_pressure;BME280_temperature;BME280_humidity;BME280_pressure;Samples;Min_cycle;Max_cycle;Signal;HPM_P1;HPM_P2
2021/04/11 00:00:37;;;;;;;13.82;8.20;;;9.70;92.40;;;;;;5115284;28;20106;-35
2021/04/11 00:03:05;;;;;;;15.10;8.20;;;9.80;92.20;;;;;;5114986;28;20043;-36
2021/04/11 00:05:33;;;;;;;15.07;8.40;;;9.80;92.30;;;;;;5116906;28;20427;-36
2021/04/11 00:07:59;;;;;;;17.35;9.32;;;9.70;92.60;;;;;;5115082;28;20099;-37
2021/04/11 00:10:29;;;;;;;15.30;8.80;;;9.70;92.50;;;;;;5113709;28;20047;-37
2021/04/11 00:12:55;;;;;;;11.32;8.50;;;9.70;92.80;;;;;;5113892;28;20026;-36
2021/04/11 00:15:20;;;;;;;13.65;8.45;;;9.70;92.40;;;;;;5115218;28;20383;-36
2021/04/11 00:17:46;;;;;;;12.15;7.95;;;9.70;92.60;;;;;;5114860;28;20036;-35
2021/04/11 00:20:13;;;;;;;13.82;7.55;;;9.70;92.40;;;;;;5114805;28;20035;-36
2021/04/11 00:22:39;;;;;;;13.23;7.50;;;9.70;92.60;;;;;;5114633;28;20364;-37
2021/04/11 00:25:10;;;;;;;12.70;8.18;;;9.60;92.90;;;;;;5115303;28;20027;-36
2021/04/11 00:27:36;;;;;;;13.55;8.18;;;9.60;93.00;;;;;;5114478;28;20024;-36
2021/04/11 00:30:04;;;;;;;14.00;9.32;;;9.60;93.10;;;;;;5114876;27;20034;-36
2021/04/11 00:32:29;;;;;;;13.23;8.75;;;9.70;93.10;;;;;;5114635;28;20030;-37
2021/04/11 00:34:55;;;;;;;14.32;8.68;;;9.70;92.90;;;;;;5115031;28;20471;-37
2021/04/11 00:37:20;;;;;;;10.35;8.10;;;9.80;92.70;;;;;;5115006;28;20429;-37
2021/04/11 00:39:46;;;;;;;13.27;9.63;;;9.70;92.60;;;;;;5114077;28;20483;-37
2021/04/11 00:42:34;;;;;;;14.20;8.18;;;9.80;92.80;;;;;;5114096;28;20119;-37
2021/04/11 00:45:15;;;;;;;14.02;8.15;;;9.70;92.80;;;;;;5114676;28;20055;-35
2021/04/11 00:47:41;;;;;;;11.98;7.50;;;9.70;92.70;;;;;;5114651;28;20042;-37
2021/04/11 00:50:11;;;;;;;12.05;8.02;;;9.60;92.70;;;;;;5114443;28;20039;-37
2021/04/11 00:52:37;;;;;;;8.53;7.43;;;9.60;92.90;;;;;;5114565;28;20103;-37
2021/04/11 00:55:02;;;;;;;13.10;7.78;;;9.70;92.80;;;;;;5114622;28;20063;-35
2021/04/11 00:57:29;;;;;;;9.77;7.47;;;9.70;92.40;;;;;;5114438;28;20023;-37
2021/04/11 00:59:54;;;;;;;14.32;7.45;;;9.50;92.90;;;;;;5112644;28;20020;-36
2021/04/11 01:02:20;;;;;;;11.63;7.82;;;9.70;93.00;;;;;;5113702;28;20301;-36
2021/04/11 01:04:47;;;;;;;10.10;8.23;;;9.60;92.80;;;;;;5113696;28;20455;-35
2021/04/11 01:07:14;;;;;;;11.50;8.75;;;9.60;92.80;;;;;;5114477;28;20412;-36
2021/04/11 01:09:44;;;;;;;11.02;8.07;;;9.70;92.70;;;;;;5112637;28;20396;-36
2021/04/11 01:12:17;;;;;;;8.38;6.68;;;9.70;92.30;;;;;;5114034;28;20020;-36
2021/04/11 01:14:44;;;;;;;9.65;6.65;;;9.60;92.50;;;;;;5113846;28;20027;-36
2021/04/11 01:17:16;;;;;;;11.75;6.80;;;9.70;92.60;;;;;;5114345;28;20043;-36
2021/04/11 01:19:42;;;;;;;14.20;7.15;;;9.70;92.20;;;;;;5113866;28;20023;-36
2021/04/11 01:22:36;;;;;;;8.45;6.28;;;9.80;91.70;;;;;;5113424;28;20024;-36
2021/04/11 01:25:08;;;;;;;10.38;7.90;;;9.70;92.10;;;;;;5113950;28;20019;-36
2021/04/11 01:27:35;;;;;;;8.25;6.70;;;9.80;91.80;;;;;;5113890;28;20019;-37
2021/04/11 01:30:27;;;;;;;9.10;7.28;;;9.80;91.70;;;;;;5113745;28;20108;-36
2021/04/11 01:32:54;;;;;;;8.77;6.82;;;9.80;91.20;;;;;;5113226;28;20457;-36
2021/04/11 01:35:23;;;;;;;10.45;6.43;;;9.90;90.90;;;;;;5113746;28;20020;-36
2021/04/11 01:37:50;;;;;;;10.18;6.78;;;9.90;91.00;;;;;;5113719;28;20146;-36
2021/04/11 01:40:20;;;;;;;10.05;6.30;;;9.90;90.80;;;;;;5113898;28;20379;-36
2021/04/11 01:42:46;;;;;;;9.50;7.37;;;9.90;90.80;;;;;;5113563;28;20046;-36
2021/04/11 01:45:14;;;;;;;10.10;6.50;;;9.90;91.00;;;;;;5113506;28;20020;-36
2021/04/11 01:47:40;;;;;;;9.30;6.75;;;9.80;91.40;;;;;;5113603;28;20019;-36
2021/04/11 01:50:10;;;;;;;7.97;6.60;;;9.70;91.70;;;;;;5113684;28;20044;-37
2021/04/11 01:52:39;;;;;;;10.32;7.20;;;9.80;91.90;;;;;;5114684;28;20027;-35
2021/04/11 01:55:06;;;;;;;8.45;5.97;;;9.80;91.50;;;;;;5118243;28;20348;-35
2021/04/11 01:57:34;;;;;;;10.68;6.47;;;9.70;91.80;;;;;;5117551;28;20024;-36
2021/04/11 02:00:21;;;;;;;12.10;8.75;;;9.70;92.10;;;;;;5116292;28;20028;-37
2021/04/11 02:02:47;;;;;;;10.40;7.03;;;9.80;91.80;;;;;;5117387;27;20036;-35
2021/04/11 02:05:18;;;;;;;10.68;6.65;;;9.70;92.00;;;;;;5117882;28;20027;-36
2021/04/11 02:07:45;;;;;;;9.60;7.90;;;9.70;92.30;;;;;;5117588;27;20027;-36
2021/04/11 02:10:15;;;;;;;11.27;7.30;;;9.60;92.60;;;;;;5117687;28;20023;-36
2021/04/11 02:12:41;;;;;;;12.23;6.75;;;9.60;92.50;;;;;;5117953;28;20059;-36
2021/04/11 02:15:20;;;;;;;11.35;7.40;;;9.70;92.60;;;;;;5117598;28;20055;-36
2021/04/11 02:17:47;;;;;;;11.18;8.20;;;9.70;92.80;;;;;;5117915;28;20045;-36
2021/04/11 02:20:14;;;;;;;9.00;7.50;;;9.70;92.90;;;;;;5117246;28;20035;-35
2021/04/11 02:22:41;;;;;;;13.60;7.50;;;9.60;93.00;;;;;;5117012;28;20118;-36
2021/04/11 02:25:16;;;;;;;12.05;8.60;;;9.60;93.10;;;;;;5117195;28;20047;-36
2021/04/11 02:27:42;;;;;;;15.32;9.43;;;9.70;93.00;;;;;;5117344;28;20106;-36
2021/04/11 02:30:11;;;;;;;16.85;12.38;;;9.80;92.90;;;;;;5117716;28;20061;-36
2021/04/11 02:32:37;;;;;;;27.63;21.40;;;9.80;92.50;;;;;;5116943;28;20027;-36
2021/04/11 02:35:05;;;;;;;28.77;20.25;;;9.30;91.20;;;;;;5117346;28;20084;-36
2021/04/11 02:37:33;;;;;;;30.95;20.55;;;9.10;90.70;;;;;;5116809;28;20035;-36
2021/04/11 02:40:00;;;;;;;25.98;18.02;;;8.80;90.60;;;;;;5116951;27;20019;-36
2021/04/11 02:42:30;;;;;;;22.45;15.93;;;8.50;90.90;;;;;;5117418;28;20375;-36
2021/04/11 02:45:04;;;;;;;24.40;16.67;;;8.30;91.20;;;;;;5117203;27;20016;-36
2021/04/11 02:47:29;;;;;;;28.42;17.90;;;8.20;91.40;;;;;;5117149;27;20027;-36
2021/04/11 02:49:55;;;;;;;23.13;16.85;;;8.20;91.60;;;;;;5116567;28;20118;-36
2021/04/11 02:52:25;;;;;;;21.33;15.57;;;8.00;92.00;;;;;;5116697;28;20028;-36
2021/04/11 02:54:52;;;;;;;26.03;18.57;;;8.00;91.90;;;;;;5117047;28;20024;-36
2021/04/11 02:57:19;;;;;;;25.92;17.77;;;7.90;91.70;;;;;;5116569;28;20269;-36
2021/04/11 02:59:46;;;;;;;29.55;19.23;;;7.90;92.10;;;;;;5117113;28;20030;-36
2021/04/11 03:02:14;;;;;;;27.23;17.70;;;7.90;91.90;;;;;;5116544;28;20024;-36
2021/04/11 03:04:40;;;;;;;26.50;18.48;;;8.00;91.60;;;;;;5116236;28;20028;-36
2021/04/11 03:07:16;;;;;;;19.70;13.50;;;8.00;91.80;;;;;;5116631;28;20024;-36
2021/04/11 03:09:46;;;;;;;15.57;10.82;;;7.80;91.80;;;;;;5116382;28;20157;-37
2021/04/11 03:12:13;;;;;;;15.52;10.43;;;7.60;92.40;;;;;;5115618;28;20352;-43
2021/04/11 03:14:42;;;;;;;13.52;9.63;;;7.40;92.40;;;;;;5115197;28;20028;-35
2021/04/11 03:17:14;;;;;;;12.55;8.25;;;7.30;92.50;;;;;;5116220;28;20403;-36
2021/04/11 03:20:08;;;;;;;13.02;9.00;;;7.20;92.70;;;;;;5116466;28;20020;-36
2021/04/11 03:22:34;;;;;;;8.73;6.75;;;7.30;92.90;;;;;;5110206;28;20069;-35
2021/04/11 03:25:00;;;;;;;9.55;6.78;;;7.10;92.10;;;;;;5115980;28;20054;-35
2021/04/11 03:27:44;;;;;;;7.97;6.85;;;7.10;92.40;;;;;;5115994;28;20051;-35
2021/04/11 03:30:30;;;;;;;7.63;6.38;;;7.00;92.30;;;;;;5115974;28;20020;-35
2021/04/11 03:33:02;;;;;;;8.77;6.82;;;7.00;92.40;;;;;;5115926;28;20107;-36
2021/04/11 03:35:31;;;;;;;6.32;5.72;;;7.00;92.10;;;;;;5115826;28;20031;-35
2021/04/11 03:37:59;;;;;;;7.65;5.85;;;6.90;91.60;;;;;;5115807;28;20107;-35
2021/04/11 03:40:28;;;;;;;7.35;5.53;;;6.70;92.00;;;;;;5114574;28;20020;-35
2021/04/11 03:42:59;;;;;;;8.02;6.30;;;6.50;92.80;;;;;;5115528;28;20483;-36
2021/04/11 03:45:28;;;;;;;8.27;5.78;;;6.50;93.10;;;;;;5115818;28;20119;-35
2021/04/11 03:47:59;;;;;;;6.10;5.22;;;6.40;92.80;;;;;;5115546;28;20027;-35
2021/04/11 03:50:31;;;;;;;6.93;5.75;;;6.40;92.40;;;;;;5115818;28;20036;-36
2021/04/11 03:53:04;;;;;;;6.85;5.47;;;6.20;92.30;;;;;;5115661;28;20458;-35
2021/04/11 03:55:34;;;;;;;9.13;6.20;;;6.00;92.50;;;;;;5115505;28;20023;-35
2021/04/11 03:58:05;;;;;;;8.82;6.40;;;6.10;92.20;;;;;;5115993;28;20051;-35
2021/04/11 04:00:36;;;;;;;5.45;4.75;;;5.90;92.30;;;;;;5115245;28;20027;-35
2021/04/11 04:03:08;;;;;;;;;;;5.90;92.50;;;;;;5115852;28;20023;-35
2021/04/11 04:05:36;;;;;;;7.03;5.25;;;6.10;92.60;;;;;;5115407;28;19956;-35
2021/04/11 04:08:02;;;;;;;9.63;5.47;;;6.00;91.90;;;;;;5115162;28;20094;-35
2021/04/11 04:10:38;;;;;;;5.00;4.47;;;5.90;92.00;;;;;;5114943;28;20019;-37
2021/04/11 04:13:18;;;;;;;6.85;4.85;;;5.90;92.00;;;;;;5115232;28;20094;-35
2021/04/11 04:15:56;;;;;;;7.00;5.10;;;5.80;91.70;;;;;;5114282;28;20024;-35
2021/04/11 04:18:46;;;;;;;6.63;4.97;;;5.80;92.40;;;;;;5115165;28;20117;-35
2021/04/11 04:21:19;;;;;;;5.53;4.80;;;5.70;92.00;;;;;;5114691;28;20103;-36
2021/04/11 04:23:49;;;;;;;6.20;4.55;;;5.80;91.90;;;;;;5114701;28;20103;-35
2021/04/11 04:26:39;;;;;;;6.03;5.18;;;5.60;91.90;;;;;;5114991;28;20481;-35
2021/04/11 04:29:43;;;;;;;6.20;5.00;;;5.70;92.00;;;;;;5114794;28;20081;-35
2021/04/11 04:32:30;;;;;;;6.45;5.18;;;5.70;91.90;;;;;;5114026;28;20051;-35
2021/04/11 04:35:02;;;;;;;4.25;3.83;;;5.80;91.90;;;;;;5114726;28;20039;-35
2021/04/11 04:38:03;;;;;;;4.03;3.60;;;5.60;91.70;;;;;;5114455;28;20023;-35
2021/04/11 04:40:39;;;;;;;5.05;3.25;;;5.50;91.70;;;;;;5098002;28;20108;-35
2021/04/11 04:43:30;;;;;;;4.63;3.05;;;5.50;91.80;;;;;;5114669;28;20077;-35
2021/04/11 04:46:10;;;;;;;3.95;3.42;;;5.50;91.40;;;;;;5114700;28;20344;-35
2021/04/11 04:48:43;;;;;;;4.75;3.80;;;5.40;91.60;;;;;;5114517;28;20031;-35
2021/04/11 04:51:33;;;;;;;5.07;4.15;;;5.40;91.80;;;;;;5112744;28;20044;-35
2021/04/11 04:54:16;;;;;;;5.90;4.45;;;5.30;92.20;;;;;;5095939;28;20041;-35
2021/04/11 04:56:51;;;;;;;4.47;3.88;;;5.30;91.90;;;;;;5114400;28;20032;-35
2021/04/11 04:59:25;;;;;;;4.68;3.50;;;5.20;91.50;;;;;;5114162;28;20383;-35
2021/04/11 05:01:57;;;;;;;4.95;4.43;;;5.20;91.60;;;;;;5114008;27;20050;-35
2021/04/11 05:04:26;;;;;;;6.65;5.25;;;5.10;91.80;;;;;;5114364;28;20027;-35
2021/04/11 05:06:59;;;;;;;5.18;4.57;;;5.00;91.80;;;;;;5114440;28;20028;-36
2021/04/11 05:09:37;;;;;;;6.50;5.78;;;4.80;91.80;;;;;;5114181;28;20034;-36
2021/04/11 05:12:24;;;;;;;7.00;6.30;;;4.80;92.30;;;;;;5112645;28;20031;-36
2021/04/11 05:14:56;;;;;;;7.80;5.88;;;4.80;92.00;;;;;;5114405;28;20380;-35
2021/04/11 05:17:59;;;;;;;8.18;6.25;;;4.70;92.20;;;;;;5112671;28;20382;-35
2021/04/11 05:20:29;;;;;;;7.65;6.35;;;4.70;92.10;;;;;;5104515;28;20046;-35
2021/04/11 05:23:20;;;;;;;10.30;8.13;;;4.70;92.20;;;;;;5114495;28;20016;-35
2021/04/11 05:26:07;;;;;;;11.02;8.75;;;4.70;91.90;;;;;;5113720;28;20246;-35
2021/04/11 05:28:57;;;;;;;12.40;8.98;;;4.70;92.10;;;;;;5113926;28;20023;-35
2021/04/11 05:31:37;;;;;;;13.18;9.02;;;4.60;92.10;;;;;;5113660;28;20034;-35
2021/04/11 05:34:09;;;;;;;11.00;8.77;;;4.60;92.40;;;;;;5113763;28;20035;-35
2021/04/11 05:37:00;;;;;;;13.25;9.50;;;4.70;92.50;;;;;;5113570;28;20403;-35
2021/04/11 05:39:32;;;;;;;14.13;9.88;;;4.70;92.40;;;;;;5114124;28;20038;-35
2021/04/11 05:42:34;;;;;;;14.20;10.68;;;4.70;92.70;;;;;;5113761;28;20119;-35
2021/04/11 05:45:03;;;;;;;17.83;12.70;;;4.70;92.30;;;;;;5113782;28;20020;-36
2021/04/11 05:47:44;;;;;;;15.85;11.15;;;4.60;92.30;;;;;;5113725;28;20024;-35
2021/04/11 05:50:21;;;;;;;21.33;13.30;;;4.50;92.20;;;;;;5113339;28;20492;-35
2021/04/11 05:53:18;;;;;;;17.98;13.02;;;4.40;92.60;;;;;;5113531;28;20046;-35
2021/04/11 05:55:49;;;;;;;21.55;14.27;;;4.50;92.50;;;;;;5113961;28;20034;-35
2021/04/11 05:58:20;;;;;;;20.90;14.07;;;4.50;92.70;;;;;;5113331;28;20429;-36
2021/04/11 06:00:51;;;;;;;25.13;15.55;;;4.60;92.30;;;;;;5113407;28;20380;-36
2021/04/11 06:03:21;;;;;;;22.17;14.32;;;4.50;92.40;;;;;;5113581;28;20024;-36
2021/04/11 06:06:12;;;;;;;27.02;15.80;;;4.40;92.70;;;;;;5111953;28;20357;-36
2021/04/11 06:08:58;;;;;;;25.67;17.20;;;4.40;93.00;;;;;;5113478;28;20024;-36
2021/04/11 06:11:49;;;;;;;26.33;17.58;;;4.30;93.10;;;;;;5113136;28;20131;-36
2021/04/11 06:14:20;;;;;;;27.95;17.40;;;4.40;93.20;;;;;;5113447;28;20032;-36
2021/04/11 06:16:47;;;;;;;24.85;15.65;;;4.40;92.80;;;;;;5113352;28;20023;-36
2021/04/11 06:19:13;;;;;;;28.20;16.98;;;4.30;92.60;;;;;;5113177;28;20019;-36
2021/04/11 06:21:53;;;;;;;26.90;16.80;;;4.20;93.00;;;;;;5113000;28;20055;-36
2021/04/11 06:24:34;;;;;;;32.42;17.17;;;4.30;93.10;;;;;;5113282;28;20020;-36
2021/04/11 06:27:44;;;;;;;27.88;15.75;;;4.30;92.70;;;;;;5113484;28;20054;-36
2021/04/11 06:30:19;;;;;;;25.67;15.57;;;4.40;92.30;;;;;;5113621;28;20047;-36
2021/04/11 06:33:18;;;;;;;26.83;15.57;;;4.30;91.90;;;;;;5113206;28;20051;-36
2021/04/11 06:35:56;;;;;;;24.60;15.23;;;4.30;92.60;;;;;;5098976;28;20055;-36
2021/04/11 06:38:26;;;;;;;22.77;15.13;;;4.30;92.50;;;;;;5114168;28;20034;-36
2021/04/11 06:41:18;;;;;;;26.77;16.13;;;4.20;92.80;;;;;;5116829;28;20409;-36
2021/04/11 06:44:05;;;;;;;28.40;16.58;;;4.30;92.40;;;;;;5115433;28;20058;-36
2021/04/11 06:47:08;;;;;;;25.75;14.57;;;4.30;92.20;;;;;;5117313;28;20110;-36
2021/04/11 06:50:07;;;;;;;23.05;14.18;;;4.30;92.50;;;;;;5100583;28;20075;-35
2021/04/11 06:52:44;;;;;;;28.25;14.10;;;4.30;92.30;;;;;;5117091;28;20034;-37
2021/04/11 06:55:29;;;;;;;25.35;15.23;;;4.30;92.10;;;;;;5115515;28;20031;-35
2021/04/11 06:58:23;;;;;;;22.00;13.73;;;4.30;92.20;;;;;;5116688;28;20092;-36
2021/04/11 07:01:26;;;;;;;24.40;14.57;;;4.20;92.30;;;;;;5116979;28;20356;-35
2021/04/11 07:04:10;;;;;;;24.48;14.85;;;4.20;92.50;;;;;;5116879;28;20016;-37
2021/04/11 07:06:55;;;;;;;28.20;14.25;;;4.30;92.20;;;;;;5116315;28;20027;-36
2021/04/11 07:09:49;;;;;;;23.67;13.48;;;4.50;91.90;;;;;;5116439;28;20089;-36
2021/04/11 07:12:32;;;;;;;23.10;13.25;;;4.60;91.60;;;;;;5116684;28;20024;-37
2021/04/11 07:15:22;;;;;;;18.58;11.52;;;4.50;91.70;;;;;;5116336;28;20028;-36
2021/04/11 07:18:22;;;;;;;17.80;12.30;;;4.30;92.00;;;;;;5116591;28;20028;-35
2021/04/11 07:20:51;;;;;;;16.70;9.48;;;4.40;91.70;;;;;;5109140;28;20039;-35
2021/04/11 07:23:43;;;;;;;15.90;9.57;;;4.30;91.40;;;;;;5117084;28;20027;-36
2021/04/11 07:26:27;;;;;;;13.18;8.18;;;4.50;91.20;;;;;;5116695;28;20028;-36
2021/04/11 07:29:22;;;;;;;12.68;7.80;;;4.60;90.50;;;;;;5116901;28;20467;-36
2021/04/11 07:31:47;;;;;;;11.93;7.55;;;4.70;90.50;;;;;;5116484;28;20020;-36
2021/04/11 07:34:32;;;;;;;11.93;8.25;;;4.70;90.40;;;;;;5117265;27;20471;-37
2021/04/11 07:37:49;;;;;;;14.10;10.30;;;4.80;90.30;;;;;;5116029;28;20107;-36
2021/04/11 07:40:33;;;;;;;11.52;8.13;;;4.70;90.60;;;;;;5056465;28;20437;-37
2021/04/11 07:43:37;;;;;;;15.15;9.52;;;4.70;90.40;;;;;;5073333;28;20108;-37
2021/04/11 07:46:17;;;;;;;13.60;10.27;;;4.50;90.90;;;;;;5109073;28;20059;-37
2021/04/11 07:48:58;;;;;;;16.33;10.07;;;4.40;91.40;;;;;;5115540;28;20031;-37
2021/04/11 07:51:50;;;;;;;15.98;10.30;;;4.60;91.70;;;;;;5114175;28;20415;-37
2021/04/11 07:54:34;;;;;;;11.48;7.80;;;4.80;90.90;;;;;;5115744;28;20124;-37
2021/04/11 07:57:22;;;;;;;10.98;8.60;;;4.80;90.50;;;;;;5115807;28;20106;-36
2021/04/11 08:00:12;;;;;;;10.10;7.82;;;4.90;89.60;;;;;;5115788;28;20383;-43
2021/04/11 08:03:10;;;;;;;14.27;9.00;;;4.80;89.00;;;;;;5115772;28;20027;-36
2021/04/11 08:06:09;;;;;;;13.57;8.65;;;4.70;90.30;;;;;;5115817;28;20019;-36
2021/04/11 08:08:56;;;;;;;14.80;9.00;;;4.80;90.40;;;;;;5115722;28;20027;-37
2021/04/11 08:11:42;;;;;;;11.32;8.32;;;4.60;90.70;;;;;;5115290;28;20024;-36
2021/04/11 08:14:37;;;;;;;11.93;8.10;;;4.70;90.40;;;;;;5115491;28;20472;-37
2021/04/11 08:17:27;;;;;;;10.68;7.03;;;4.80;90.40;;;;;;5115993;28;20077;-36
2021/04/11 08:20:04;;;;;;;8.00;6.70;;;4.70;89.10;;;;;;5115447;28;20383;-36
2021/04/11 08:23:10;;;;;;;8.95;5.97;;;4.80;89.50;;;;;;5115117;28;20027;-36
2021/04/11 08:25:38;;;;;;;10.27;6.85;;;5.00;88.80;;;;;;5115013;28;20399;-35
2021/04/11 08:28:12;;;;;;;9.70;8.68;;;4.80;89.50;;;;;;5114601;28;20019;-35
2021/04/11 08:30:59;;;;;;;8.80;6.60;;;4.80;89.00;;;;;;5114538;28;20116;-35
2021/04/11 08:34:01;;;;;;;6.72;5.47;;;4.90;89.40;;;;;;5115009;28;20026;-35
2021/04/11 08:36:48;;;;;;;6.45;5.80;;;5.00;88.50;;;;;;5113224;28;20146;-35
2021/04/11 08:39:44;;;;;;;8.88;5.60;;;5.10;88.90;;;;;;5113403;28;20030;-36
2021/04/11 08:42:36;;;;;;;7.43;5.20;;;5.00;88.80;;;;;;5114657;28;20024;-35
2021/04/11 08:45:07;;;;;;;7.55;5.82;;;4.90;87.80;;;;;;5115879;28;20043;-44
2021/04/11 08:48:06;;;;;;;6.53;5.00;;;4.80;88.90;;;;;;5113657;28;20107;-37
2021/04/11 08:50:50;;;;;;;5.95;4.95;;;4.80;89.30;;;;;;5113868;28;20065;-37
2021/04/11 08:53:51;;;;;;;7.10;4.90;;;4.90;89.00;;;;;;5113814;28;20016;-37
2021/04/11 08:56:25;;;;;;;;;;;5.00;89.10;;;;;;5114864;28;20028;-37
2021/04/11 08:59:22;;;;;;;4.25;3.45;;;5.10;88.40;;;;;;5112704;28;19915;-37
2021/04/11 09:01:48;;;;;;;10.95;3.47;;;4.90;88.00;;;;;;5113952;28;20027;-36
2021/04/11 09:04:32;;;;;;;6.35;4.38;;;4.70;88.80;;;;;;5114266;28;20030;-36
2021/04/11 09:07:25;;;;;;;4.32;3.90;;;4.70;89.20;;;;;;5114028;28;20016;-37
2021/04/11 09:10:17;;;;;;;7.07;3.65;;;4.90;89.30;;;;;;5113933;28;20487;-37
2021/04/11 09:13:17;;;;;;;4.00;3.55;;;4.90;88.60;;;;;;5114180;28;20023;-36
2021/04/11 09:16:30;;;;;;;5.13;3.45;;;5.00;88.40;;;;;;5113301;28;20412;-37
2021/04/11 09:19:02;;;;;;;4.60;3.45;;;4.90;88.30;;;;;;5071328;28;20028;-36
2021/04/11 09:21:52;;;;;;;3.83;2.90;;;5.00;87.30;;;;;;5071019;28;20033;-36
2021/04/11 09:24:50;;;;;;;3.42;2.88;;;4.80;87.30;;;;;;5099841;28;20035;-37
2021/04/11 09:27:28;;;;;;;3.35;3.03;;;5.00;87.40;;;;;;5113809;28;20023;-36
2021/04/11 09:30:28;;;;;;;6.63;3.30;;;5.20;86.60;;;;;;5114032;28;20015;-36
2021/04/11 09:33:09;;;;;;;6.28;2.70;;;5.30;87.70;;;;;;5112800;28;20399;-37
2021/04/11 09:35:53;;;;;;;;;;;5.30;86.30;;;;;;5114350;28;20054;-36
2021/04/11 09:38:42;;;;;;;5.82;3.25;;;5.10;86.20;;;;;;5114154;28;19904;-36
2021/04/11 09:41:22;;;;;;;4.82;3.45;;;5.30;86.00;;;;;;5113548;28;20024;-36
2021/04/11 09:44:29;;;;;;;3.70;3.03;;;5.30;85.20;;;;;;5113779;28;20027;-36
2021/04/11 09:47:32;;;;;;;4.60;3.13;;;5.20;85.50;;;;;;5112606;28;20489;-37
2021/04/11 09:50:01;;;;;;;3.92;2.65;;;5.30;86.20;;;;;;5113783;28;20496;-36
2021/04/11 09:52:44;;;;;;;3.38;2.50;;;5.40;86.20;;;;;;5114173;28;20032;-36
2021/04/11 09:55:48;;;;;;;4.70;2.85;;;5.70;84.00;;;;;;5113781;28;20095;-36
2021/04/11 09:58:26;;;;;;;3.03;2.45;;;5.80;82.80;;;;;;5113480;28;20030;-37
2021/04/11 10:01:10;;;;;;;3.83;2.38;;;5.60;84.50;;;;;;5113644;28;20020;-37
2021/04/11 10:04:14;;;;;;;2.50;1.98;;;5.60;85.00;;;;;;5113521;28;20490;-37
2021/04/11 10:07:04;;;;;;;2.88;2.58;;;5.50;84.90;;;;;;5111334;28;20085;-36
2021/04/11 10:10:06;;;;;;;1.80;1.70;;;5.60;83.90;;;;;;5113281;28;20020;-37
2021/04/11 10:13:08;;;;;;;4.68;2.50;;;5.80;82.70;;;;;;5113536;28;20035;-38
2021/04/11 10:15:37;;;;;;;3.78;2.38;;;5.80;83.30;;;;;;5075173;28;20048;-36
2021/04/11 10:18:15;;;;;;;5.63;2.93;;;5.80;82.80;;;;;;5109638;28;20047;-37
2021/04/11 10:20:53;;;;;;;5.18;2.75;;;5.80;84.20;;;;;;5117482;27;20026;-37
2021/04/11 10:23:47;;;;;;;3.50;2.10;;;6.20;83.70;;;;;;5117213;28;20036;-37
2021/04/11 10:26:36;;;;;;;3.92;2.53;;;6.40;81.50;;;;;;5117145;28;20074;-37
2021/04/11 10:29:12;;;;;;;4.45;3.20;;;6.70;81.30;;;;;;5116928;28;20025;-37
2021/04/11 10:31:44;;;;;;;4.60;3.00;;;6.30;81.80;;;;;;5116351;28;20372;-37
2021/04/11 10:34:36;;;;;;;2.70;1.55;;;6.50;82.00;;;;;;5117042;28;20023;-37
2021/04/11 10:37:38;;;;;;;3.83;2.38;;;6.40;80.60;;;;;;5115891;28;20055;-37
2021/04/11 10:40:25;;;;;;;4.00;1.85;;;6.30;81.60;;;;;;5116782;28;20501;-37
2021/04/11 10:43:29;;;;;;;5.97;1.85;;;6.30;81.70;;;;;;5116753;28;20378;-37
2021/04/11 10:46:03;;;;;;;2.83;1.85;;;6.20;81.90;;;;;;5117295;28;20027;-36
2021/04/11 10:48:51;;;;;;;2.08;1.48;;;6.00;81.70;;;;;;5116968;28;20483;-38
2021/04/11 10:51:52;;;;;;;3.00;2.10;;;5.90;82.70;;;;;;5116312;28;20048;-35
2021/04/11 10:54:24;;;;;;;2.72;1.80;;;5.80;84.50;;;;;;5100418;28;20501;-36
2021/04/11 10:57:23;;;;;;;1.88;1.67;;;5.90;81.10;;;;;;5116906;28;20045;-37
2021/04/11 11:00:04;;;;;;;3.97;2.35;;;6.00;81.50;;;;;;5116323;28;20024;-36
2021/04/11 11:02:54;;;;;;;4.00;1.63;;;5.90;82.00;;;;;;5116569;28;20110;-36
2021/04/11 11:05:32;;;;;;;2.33;1.85;;;6.30;82.20;;;;;;5114939;28;20036;-37
2021/04/11 11:08:12;;;;;;;2.08;1.60;;;6.30;82.10;;;;;;5116590;27;20062;-36
2021/04/11 11:11:06;;;;;;;3.40;2.20;;;6.00;82.50;;;;;;5116247;28;20051;-37
2021/04/11 11:13:50;;;;;;;2.30;2.03;;;6.00;82.00;;;;;;5116688;28;20047;-38
2021/04/11 11:16:19;;;;;;;3.28;2.30;;;6.10;82.70;;;;;;5115961;28;20070;-36
2021/04/11 11:19:12;;;;;;;3.17;2.22;;;5.90;83.00;;;;;;5116218;28;20032;-36
2021/04/11 11:22:02;;;;;;;5.97;3.55;;;5.80;82.60;;;;;;5114362;28;20476;-36
2021/04/11 11:24:52;;;;;;;2.30;2.03;;;5.80;82.10;;;;;;5114423;28;20034;-36
2021/04/11 11:27:41;;;;;;;3.17;1.75;;;5.80;81.10;;;;;;5114351;28;20027;-36
2021/04/11 11:30:15;;;;;;;6.60;3.85;;;5.80;80.90;;;;;;5116011;28;20499;-37
2021/04/11 11:32:46;;;;;;;2.28;2.08;;;5.80;82.10;;;;;;5116152;28;20019;-36
2021/04/11 11:35:14;;;;;;;3.28;2.20;;;6.10;82.00;;;;;;5115830;28;20054;-36
2021/04/11 11:37:51;;;;;;;2.08;1.88;;;6.00;80.20;;;;;;5116195;28;20023;-36
2021/04/11 11:40:19;;;;;;;3.50;2.42;;;5.80;79.90;;;;;;5115982;28;20031;-36
2021/04/11 11:43:19;;;;;;;8.40;3.30;;;5.70;81.20;;;;;;5115548;28;20034;-36
2021/04/11 11:46:00;;;;;;;3.30;2.70;;;5.90;82.00;;;;;;5114083;28;20047;-36
2021/04/11 11:48:28;;;;;;;3.05;2.20;;;6.00;80.90;;;;;;5115473;28;20524;-37
2021/04/11 11:51:08;;;;;;;4.75;2.35;;;6.00;81.40;;;;;;5115039;28;20399;-36
2021/04/11 11:53:44;;;;;;;4.15;2.42;;;6.20;81.20;;;;;;5115497;28;20119;-36
2021/04/11 11:56:23;;;;;;;9.93;5.03;;;6.20;81.30;;;;;;5115644;28;20020;-36
2021/04/11 11:59:07;;;;;;;3.95;3.05;;;5.90;81.80;;;;;;5115933;28;20023;-37
2021/04/11 12:01:59;;;;;;;10.10;3.20;;;5.80;82.00;;;;;;5115494;28;20035;-37
2021/04/11 12:04:32;;;;;;;4.65;2.53;;;5.80;81.40;;;;;;5113945;28;20107;-36
2021/04/11 12:07:03;;;;;;;2.75;2.20;;;5.90;80.40;;;;;;5115339;28;20502;-38
2021/04/11 12:09:48;;;;;;;3.13;2.13;;;5.80;80.50;;;;;;5115144;28;20063;-37
2021/04/11 12:12:25;;;;;;;4.43;2.33;;;6.10;80.80;;;;;;5115079;28;20040;-37
2021/04/11 12:15:26;;;;;;;3.38;2.13;;;6.30;81.00;;;;;;5115226;28;20415;-36
2021/04/11 12:18:07;;;;;;;3.60;2.50;;;6.30;81.20;;;;;;5105670;28;20046;-36
2021/04/11 12:21:01;;;;;;;2.95;2.72;;;6.50;80.20;;;;;;5115287;28;20077;-36
2021/04/11 12:23:32;;;;;;;3.72;2.55;;;6.50;80.30;;;;;;5109007;28;20047;-35
2021/04/11 12:26:22;;;;;;;3.53;2.50;;;6.30;82.40;;;;;;5115139;28;20445;-36
2021/04/11 12:28:50;;;;;;;3.50;2.15;;;6.40;80.00;;;;;;5115207;28;20023;-37
2021/04/11 12:31:28;;;;;;;2.40;1.90;;;6.60;79.30;;;;;;5114918;28;20023;-36
2021/04/11 12:34:01;;;;;;;5.55;2.10;;;6.60;78.10;;;;;;5113595;28;20030;-37
2021/04/11 12:36:51;;;;;;;4.38;2.35;;;6.50;79.00;;;;;;5113979;28;20019;-37
2021/04/11 12:39:26;;;;;;;4.95;2.25;;;6.90;78.80;;;;;;5114802;28;20024;-37
2021/04/11 12:42:04;;;;;;;3.88;2.10;;;6.80;78.80;;;;;;5114501;28;20032;-37
2021/04/11 12:44:45;;;;;;;4.18;2.03;;;6.80;78.10;;;;;;5114708;28;20042;-37
2021/04/11 12:47:19;;;;;;;5.38;2.22;;;6.80;76.90;;;;;;5114701;27;20023;-37
2021/04/11 12:50:12;;;;;;;3.17;2.00;;;6.80;74.90;;;;;;5114282;27;20110;-37
2021/04/11 12:52:50;;;;;;;6.70;2.45;;;6.70;77.00;;;;;;5113987;28;20335;-37
2021/04/11 12:55:22;;;;;;;4.57;2.28;;;6.60;76.20;;;;;;5113137;28;20035;-37
2021/04/11 12:58:17;;;;;;;2.22;1.70;;;6.60;75.60;;;;;;5113273;28;20028;-37
2021/04/11 13:01:11;;;;;;;4.38;2.38;;;6.60;77.10;;;;;;5112408;28;20031;-37
2021/04/11 13:03:44;;;;;;;3.75;2.00;;;6.40;76.60;;;;;;5110447;28;20502;-36
2021/04/11 13:06:28;;;;;;;3.70;2.22;;;6.50;77.40;;;;;;5112807;28;20035;-36
2021/04/11 13:09:19;;;;;;;3.72;1.85;;;7.00;75.30;;;;;;5114951;28;20031;-37
2021/04/11 13:12:26;;;;;;;4.20;1.98;;;7.20;74.60;;;;;;5116941;28;20043;-36
2021/04/11 13:15:18;;;;;;;4.88;2.15;;;7.60;72.00;;;;;;5079253;28;20438;-37
2021/04/11 13:18:18;;;;;;;6.50;2.85;;;7.80;70.60;;;;;;5114304;28;20055;-37
2021/04/11 13:21:17;;;;;;;2.63;1.75;;;7.70;72.50;;;;;;5114205;28;20034;-37
2021/04/11 13:23:43;;;;;;;5.25;1.77;;;7.50;71.40;;;;;;5113832;28;20024;-37
2021/04/11 13:26:43;;;;;;;4.38;1.95;;;7.20;71.50;;;;;;5113448;28;20020;-36
2021/04/11 13:29:22;;;;;;;2.60;1.70;;;7.00;72.00;;;;;;5114035;28;20015;-36
2021/04/11 13:31:56;;;;;;;11.68;2.00;;;7.00;72.20;;;;;;5112209;28;20028;-37
2021/04/11 13:34:28;;;;;;;4.00;1.98;;;6.80;73.20;;;;;;5113948;28;20070;-36
2021/04/11 13:36:55;;;;;;;1.73;1.38;;;6.90;73.40;;;;;;5113584;28;20028;-37
2021/04/11 13:39:32;;;;;;;3.78;1.85;;;7.00;72.60;;;;;;5113509;28;20026;-36
2021/04/11 13:42:16;;;;;;;2.95;1.60;;;7.10;72.50;;;;;;5113505;28;20084;-37
2021/04/11 13:44:53;;;;;;;20.02;5.18;;;7.00;71.60;;;;;;5112203;28;20409;-38
2021/04/11 13:47:43;;;;;;;17.10;5.63;;;6.90;72.70;;;;;;5113813;28;20104;-36
2021/04/11 13:50:43;;;;;;;2.13;1.87;;;6.80;73.30;;;;;;5116002;28;20039;-37
2021/04/11 13:53:43;;;;;;;4.90;1.92;;;6.80;73.00;;;;;;5101056;28;20258;-37
2021/04/11 13:56:41;;;;;;;7.38;2.47;;;6.80;73.50;;;;;;5117936;28;20015;-36